Time,TemperatureF,DewpointF,PressureIn,WindDirection,WindDirectionDegrees,WindSpeedMPH,WindSpeedGustMPH,Humidity,HourlyPrecipIn,Conditions,Clouds,dailyrainin,SoftwareType,DateUTC
2013-03-01 13:37:00,37.7,22.2,30.16,West,265,6.3,7.6,53,0.00,,,0.00,VWS V13.01,2013-03-01 19:37:00,
2013-03-01 13:42:00,37.9,22.3,30.16,SW,236,9.6,11.0,53,0.00,,,0.00,VWS V13.01,2013-03-01 19:42:00,
2013-03-01 13:47:00,37.9,22.3,30.16,West,274,7.6,8.3,53,0.00,,,0.00,VWS V13.01,2013-03-01 19:47:00,
2013-03-01 13:52:00,38.1,22.5,30.16,West,267,8.7,8.7,53,0.00,,,0.00,VWS V13.01,2013-03-01 19:52:00,
2013-03-01 13:57:00,38.3,22.2,30.16,West,270,8.3,11.0,52,0.00,,,0.00,VWS V13.01,2013-03-01 19:57:00,
2013-03-01 14:02:00,39.2,22.6,30.16,NW,321,4.9,8.3,51,0.00,,,0.00,VWS V13.01,2013-03-01 20:02:00,
2013-03-01 14:07:00,39.2,22.6,30.16,NNW,330,6.3,10.1,51,0.00,,,0.00,VWS V13.01,2013-03-01 20:07:00,
2013-03-01 14:12:00,38.6,22.5,30.16,NW,313,6.3,8.7,52,0.00,,,0.00,VWS V13.01,2013-03-01 20:12:00,
2013-03-01 14:17:00,38.5,22.8,30.13,NW,310,5.8,5.8,53,0.00,,,0.00,VWS V13.01,2013-03-01 20:17:00,
2013-03-01 14:22:00,39.9,23.7,30.13,West,268,5.4,8.3,52,0.00,,,0.00,VWS V13.01,2013-03-01 20:22:00,
2013-03-01 14:27:00,39.0,22.4,30.13,NW,306,5.4,6.3,51,0.00,,,0.00,VWS V13.01,2013-03-01 20:27:00,
2013-03-01 14:32:00,38.5,21.9,30.13,NW,308,8.1,8.7,51,0.00,,,0.00,VWS V13.01,2013-03-01 20:32:00,
2013-03-01 14:37:00,38.1,22.0,30.13,NW,308,10.1,10.1,52,0.00,,,0.00,VWS V13.01,2013-03-01 20:37:00,
2013-03-01 14:42:00,37.4,20.9,30.13,NW,318,8.3,8.3,51,0.00,,,0.00,VWS V13.01,2013-03-01 20:42:00,
2013-03-01 14:47:00,37.7,21.2,30.16,NW,312,8.7,11.9,51,0.00,,,0.00,VWS V13.01,2013-03-01 20:47:00,
2013-03-01 14:52:00,38.1,22.0,30.16,West,269,9.2,13.2,52,0.00,,,0.00,VWS V13.01,2013-03-01 20:52:00,
2013-03-01 14:57:00,38.1,21.6,30.16,WSW,256,5.4,5.4,51,0.00,,,0.00,VWS V13.01,2013-03-01 20:57:00,
2013-03-01 15:02:00,38.1,22.0,30.16,West,277,8.1,12.8,52,0.00,,,0.00,VWS V13.01,2013-03-01 21:02:00,
2013-03-01 15:07:00,37.9,21.4,30.16,WNW,297,5.4,6.3,51,0.00,,,0.00,VWS V13.01,2013-03-01 21:07:00,
2013-03-01 15:12:00,37.6,21.1,30.16,NW,306,10.1,10.1,51,0.00,,,0.00,VWS V13.01,2013-03-01 21:12:00,
2013-03-01 15:17:00,37.7,21.2,30.16,WSW,252,7.2,8.7,51,0.00,,,0.00,VWS V13.01,2013-03-01 21:17:00,
2013-03-01 15:22:00,37.4,20.5,30.16,West,260,8.7,10.5,50,0.00,,,0.00,VWS V13.01,2013-03-01 21:22:00,
2013-03-01 15:27:00,37.9,21.4,30.16,WSW,257,7.6,7.6,51,0.00,,,0.00,VWS V13.01,2013-03-01 21:27:00,
2013-03-01 15:32:00,37.9,21.4,30.16,WSW,248,4.0,5.8,51,0.00,,,0.00,VWS V13.01,2013-03-01 21:32:00,
2013-03-01 15:37:00,37.9,21.0,30.16,NNW,337,8.3,12.3,50,0.00,,,0.00,VWS V13.01,2013-03-01 21:37:00,
2013-03-01 15:42:00,37.9,21.0,30.16,NW,319,5.4,6.3,50,0.00,,,0.00,VWS V13.01,2013-03-01 21:42:00,
2013-03-01 15:47:00,37.6,20.6,30.16,WNW,302,7.6,8.3,50,0.00,,,0.00,VWS V13.01,2013-03-01 21:47:00,
2013-03-01 15:53:00,37.4,20.5,30.16,NNW,342,4.0,4.9,50,0.00,,,0.00,VWS V13.01,2013-03-01 21:53:00,
2013-03-01 15:58:00,37.2,20.3,30.16,NW,309,7.6,8.3,50,0.00,,,0.00,VWS V13.01,2013-03-01 21:58:00,
2013-03-01 16:03:00,37.2,20.3,30.16,NW,315,8.3,8.3,50,0.00,,,0.00,VWS V13.01,2013-03-01 22:03:00,
2013-03-01 16:08:00,37.4,20.5,30.16,NW,310,10.5,13.2,50,0.00,,,0.00,VWS V13.01,2013-03-01 22:08:00,
2013-03-01 16:13:00,37.2,20.3,30.16,NW,314,9.6,9.6,50,0.00,,,0.00,VWS V13.01,2013-03-01 22:13:00,
2013-03-01 16:18:00,37.2,20.3,30.16,WNW,298,8.7,8.7,50,0.00,,,0.00,VWS V13.01,2013-03-01 22:18:00,
2013-03-01 16:23:00,37.2,20.3,30.16,WNW,293,6.3,8.1,50,0.00,,,0.00,VWS V13.01,2013-03-01 22:23:00,
2013-03-01 16:28:00,37.2,20.3,30.16,NW,316,8.1,8.1,50,0.00,,,0.00,VWS V13.01,2013-03-01 22:28:00,
2013-03-01 16:33:00,37.0,20.1,30.19,NNW,328,10.1,10.1,50,0.00,,,0.00,VWS V13.01,2013-03-01 22:33:00,
2013-03-01 16:38:00,37.4,20.5,30.19,WNW,292,8.3,8.3,50,0.00,,,0.00,VWS V13.01,2013-03-01 22:38:00,
2013-03-01 16:43:00,37.2,20.3,30.19,WNW,296,10.5,10.5,50,0.00,,,0.00,VWS V13.01,2013-03-01 22:43:00,
2013-03-01 16:48:00,37.2,20.3,30.19,West,264,3.1,4.9,50,0.00,,,0.00,VWS V13.01,2013-03-01 22:48:00,
2013-03-01 16:53:00,37.2,20.3,30.19,WNW,288,4.9,4.9,50,0.00,,,0.00,VWS V13.01,2013-03-01 22:53:00,
2013-03-01 16:58:00,36.7,19.8,30.19,NNW,332,5.4,11.0,50,0.00,,,0.00,VWS V13.01,2013-03-01 22:58:00,
2013-03-01 17:03:00,36.7,20.2,30.19,WSW,258,7.6,7.6,51,0.00,,,0.00,VWS V13.01,2013-03-01 23:03:00,
2013-03-01 17:08:00,36.3,19.5,30.19,West,273,7.6,9.6,50,0.00,,,0.00,VWS V13.01,2013-03-01 23:08:00,
2013-03-01 17:13:00,35.9,19.6,30.19,West,270,8.7,8.7,51,0.00,,,0.00,VWS V13.01,2013-03-01 23:13:00,
2013-03-01 17:18:00,35.6,19.2,30.19,WSW,256,10.1,13.2,51,0.00,,,0.00,VWS V13.01,2013-03-01 23:18:00,
2013-03-01 17:23:00,35.6,19.2,30.19,West,261,6.3,8.1,51,0.00,,,0.00,VWS V13.01,2013-03-01 23:23:00,
2013-03-01 17:28:00,35.4,19.1,30.19,West,261,8.1,8.1,51,0.00,,,0.00,VWS V13.01,2013-03-01 23:28:00,
2013-03-01 17:33:00,35.4,19.1,30.19,WNW,296,5.4,7.6,51,0.00,,,0.00,VWS V13.01,2013-03-01 23:33:00,
2013-03-01 17:38:00,35.2,18.9,30.19,NW,307,8.1,8.7,51,0.00,,,0.00,VWS V13.01,2013-03-01 23:38:00,
2013-03-01 17:43:00,35.0,19.2,30.19,WNW,291,4.9,8.7,52,0.00,,,0.00,VWS V13.01,2013-03-01 23:43:00,
2013-03-01 17:47:00,34.9,19.0,30.19,WNW,303,6.3,6.3,52,0.00,,,0.00,VWS V13.01,2013-03-01 23:47:00,
2013-03-01 17:52:00,34.7,18.9,30.19,West,277,3.6,4.9,52,0.00,,,0.00,VWS V13.01,2013-03-01 23:52:00,
2013-03-01 17:57:00,34.7,18.9,30.19,West,266,3.1,6.3,52,0.00,,,0.00,VWS V13.01,2013-03-01 23:57:00,
2013-03-01 18:02:00,34.3,18.5,30.19,WNW,294,6.3,10.1,52,0.00,,,0.00,VWS V13.01,2013-03-02 00:02:00,
2013-03-01 18:07:00,34.1,18.8,30.19,NW,315,11.0,11.0,53,0.00,,,0.00,VWS V13.01,2013-03-02 00:07:00,
2013-03-01 18:12:00,34.1,18.8,30.19,West,266,6.3,6.3,53,0.00,,,0.00,VWS V13.01,2013-03-02 00:12:00,
2013-03-01 18:17:00,34.0,18.6,30.22,West,273,10.1,10.1,53,0.00,,,0.00,VWS V13.01,2013-03-02 00:17:00,
2013-03-01 18:22:00,33.6,18.3,30.22,West,276,4.5,6.3,53,0.00,,,0.00,VWS V13.01,2013-03-02 00:22:00,
2013-03-01 18:27:00,33.6,18.3,30.22,NNW,341,6.3,7.6,53,0.00,,,0.00,VWS V13.01,2013-03-02 00:27:00,
2013-03-01 18:32:00,33.2,18.0,30.22,WNW,293,5.4,8.7,53,0.00,,,0.00,VWS V13.01,2013-03-02 00:32:00,
2013-03-01 18:37:00,33.1,18.2,30.22,WSW,252,11.4,13.2,54,0.00,,,0.00,VWS V13.01,2013-03-02 00:37:00,
2013-03-01 18:42:00,33.1,18.2,30.22,WNW,287,4.5,6.3,54,0.00,,,0.00,VWS V13.01,2013-03-02 00:42:00,
2013-03-01 18:47:00,32.9,17.6,30.22,NW,310,4.0,10.5,53,0.00,,,0.00,VWS V13.01,2013-03-02 00:47:00,
2013-03-01 18:52:00,32.7,17.5,30.22,NW,315,10.5,10.5,53,0.00,,,0.00,VWS V13.01,2013-03-02 00:52:00,
2013-03-01 18:57:00,32.7,17.9,30.22,WNW,286,6.3,6.3,54,0.00,,,0.00,VWS V13.01,2013-03-02 00:57:00,
2013-03-01 19:02:00,32.5,17.3,30.22,NW,318,10.5,10.5,53,0.00,,,0.00,VWS V13.01,2013-03-02 01:02:00,
2013-03-01 19:07:00,32.3,17.1,30.22,NW,320,8.3,8.3,53,0.00,,,0.00,VWS V13.01,2013-03-02 01:07:00,
2013-03-01 19:12:00,32.3,17.1,30.22,WNW,287,6.3,8.7,53,0.00,,,0.00,VWS V13.01,2013-03-02 01:12:00,
2013-03-01 19:17:00,32.2,17.0,30.22,WSW,253,4.0,7.6,53,0.00,,,0.00,VWS V13.01,2013-03-02 01:17:00,
2013-03-01 19:22:00,32.2,17.0,30.22,West,274,8.3,8.3,53,0.00,,,0.00,VWS V13.01,2013-03-02 01:22:00,
2013-03-01 19:27:00,32.0,16.8,30.22,WSW,249,4.0,8.7,53,0.00,,,0.00,VWS V13.01,2013-03-02 01:27:00,
2013-03-01 19:32:00,32.0,16.8,30.22,WNW,300,5.4,7.6,53,0.00,,,0.00,VWS V13.01,2013-03-02 01:32:00,
2013-03-01 19:37:00,31.8,16.6,30.22,West,270,4.0,4.9,53,0.00,,,0.00,VWS V13.01,2013-03-02 01:37:00,
2013-03-01 19:42:00,31.8,16.6,30.22,WSW,246,8.3,8.3,53,0.00,,,0.00,VWS V13.01,2013-03-02 01:42:00,
2013-03-01 19:47:00,31.8,16.6,30.22,West,260,5.4,10.5,53,0.00,,,0.00,VWS V13.01,2013-03-02 01:47:00,
2013-03-01 19:52:00,31.6,16.9,30.22,WNW,282,4.0,8.1,54,0.00,,,0.00,VWS V13.01,2013-03-02 01:52:00,
2013-03-01 19:57:00,31.6,16.5,30.22,WNW,302,5.8,7.6,53,0.00,,,0.00,VWS V13.01,2013-03-02 01:57:00,
2013-03-01 20:02:00,31.6,16.9,30.22,WSW,241,5.8,6.3,54,0.00,,,0.00,VWS V13.01,2013-03-02 02:02:00,
2013-03-01 20:07:00,31.6,16.9,30.22,WSW,258,4.9,4.9,54,0.00,,,0.00,VWS V13.01,2013-03-02 02:07:00,
2013-03-01 20:12:00,31.4,16.7,30.22,West,259,7.6,7.6,54,0.00,,,0.00,VWS V13.01,2013-03-02 02:12:00,
2013-03-01 20:17:00,31.4,16.7,30.22,West,273,8.7,10.1,54,0.00,,,0.00,VWS V13.01,2013-03-02 02:17:00,
2013-03-01 20:22:00,31.4,16.7,30.22,NW,320,7.6,7.6,54,0.00,,,0.00,VWS V13.01,2013-03-02 02:22:00,
2013-03-01 20:27:00,31.4,17.1,30.22,NW,308,3.6,3.6,55,0.00,,,0.00,VWS V13.01,2013-03-02 02:27:00,
2013-03-01 20:32:00,31.4,17.1,30.25,West,264,3.6,5.4,55,0.00,,,0.00,VWS V13.01,2013-03-02 02:32:00,
2013-03-01 20:37:00,31.3,17.0,30.25,NW,304,4.9,4.9,55,0.00,,,0.00,VWS V13.01,2013-03-02 02:37:00,
2013-03-01 20:42:00,31.3,17.0,30.25,NW,315,6.3,6.3,55,0.00,,,0.00,VWS V13.01,2013-03-02 02:42:00,
2013-03-01 20:47:00,31.3,16.6,30.25,NW,316,6.7,6.7,54,0.00,,,0.00,VWS V13.01,2013-03-02 02:47:00,
2013-03-01 20:52:00,31.4,16.7,30.25,NNW,334,4.9,5.8,54,0.00,,,0.00,VWS V13.01,2013-03-02 02:52:00,
2013-03-01 20:57:00,31.3,16.6,30.25,NW,315,5.4,6.3,54,0.00,,,0.00,VWS V13.01,2013-03-02 02:57:00,
2013-03-01 21:02:00,31.3,17.0,30.25,WNW,294,3.6,4.5,55,0.00,,,0.00,VWS V13.01,2013-03-02 03:02:00,
2013-03-01 21:07:00,31.3,16.6,30.25,NNW,327,5.8,10.5,54,0.00,,,0.00,VWS V13.01,2013-03-02 03:07:00,
2013-03-01 21:12:00,31.3,16.1,30.25,NW,314,6.3,8.3,53,0.00,,,0.00,VWS V13.01,2013-03-02 03:12:00,
2013-03-01 21:17:00,31.3,16.1,30.25,NNW,341,4.9,5.8,53,0.00,,,0.00,VWS V13.01,2013-03-02 03:17:00,
2013-03-01 21:22:00,31.3,16.1,30.25,NNW,334,6.3,6.3,53,0.00,,,0.00,VWS V13.01,2013-03-02 03:22:00,
2013-03-01 21:27:00,31.1,16.0,30.25,NW,326,3.1,5.4,53,0.00,,,0.00,VWS V13.01,2013-03-02 03:27:00,
2013-03-01 21:32:00,31.1,16.4,30.28,WNW,295,2.7,3.1,54,0.00,,,0.00,VWS V13.01,2013-03-02 03:32:00,
2013-03-01 21:37:00,31.1,16.4,30.28,WSW,254,5.8,9.6,54,0.00,,,0.00,VWS V13.01,2013-03-02 03:37:00,
2013-03-01 21:42:00,30.9,16.6,30.28,NW,312,8.1,8.3,55,0.00,,,0.00,VWS V13.01,2013-03-02 03:42:00,
2013-03-01 21:47:00,30.9,17.1,30.28,WNW,298,7.6,7.6,56,0.00,,,0.00,VWS V13.01,2013-03-02 03:47:00,
2013-03-01 21:52:00,30.7,16.5,30.28,WNW,299,7.6,8.1,55,0.00,,,0.00,VWS V13.01,2013-03-02 03:52:00,
2013-03-01 21:57:00,30.7,16.5,30.28,NW,305,5.8,6.3,55,0.00,,,0.00,VWS V13.01,2013-03-02 03:57:00,
2013-03-01 22:02:00,30.7,16.9,30.28,WNW,287,2.7,4.9,56,0.00,,,0.00,VWS V13.01,2013-03-02 04:02:00,
2013-03-01 22:07:00,30.7,16.9,30.28,WNW,301,4.9,4.9,56,0.00,,,0.00,VWS V13.01,2013-03-02 04:07:00,
2013-03-01 22:12:00,30.7,16.5,30.28,WNW,289,2.7,3.1,55,0.00,,,0.00,VWS V13.01,2013-03-02 04:12:00,
2013-03-01 22:17:00,30.7,16.9,30.28,WNW,297,2.7,3.1,56,0.00,,,0.00,VWS V13.01,2013-03-02 04:17:00,
2013-03-01 22:22:00,30.7,16.9,30.28,West,263,2.7,3.1,56,0.00,,,0.00,VWS V13.01,2013-03-02 04:22:00,
2013-03-01 22:27:00,30.7,16.9,30.28,West,265,2.7,2.7,56,0.00,,,0.00,VWS V13.01,2013-03-02 04:27:00,
2013-03-01 22:32:00,30.5,16.3,30.28,WNW,298,2.2,3.6,55,0.00,,,0.00,VWS V13.01,2013-03-02 04:32:00,
2013-03-01 22:37:00,30.5,16.3,30.28,NW,308,3.1,4.0,55,0.00,,,0.00,VWS V13.01,2013-03-02 04:37:00,
2013-03-01 22:42:00,30.7,16.5,30.28,West,281,5.4,6.3,55,0.00,,,0.00,VWS V13.01,2013-03-02 04:42:00,
2013-03-01 22:47:00,30.7,16.5,30.28,West,273,5.8,5.8,55,0.00,,,0.00,VWS V13.01,2013-03-02 04:47:00,
2013-03-01 22:52:00,30.7,16.9,30.28,West,274,5.8,7.6,56,0.00,,,0.00,VWS V13.01,2013-03-02 04:52:00,
2013-03-01 22:57:00,30.5,17.1,30.28,West,271,7.6,7.6,57,0.00,,,0.00,VWS V13.01,2013-03-02 04:57:00,
2013-03-01 23:00:00,30.5,17.1,30.25,NW,312,8.7,8.7,57,0.00,,,0.00,VWS V13.01,2013-03-02 05:00:00,
2013-03-01 23:05:00,30.5,17.5,30.25,West,279,4.9,6.3,58,0.00,,,0.00,VWS V13.01,2013-03-02 05:05:00,
2013-03-01 23:10:00,30.5,17.5,30.25,WNW,295,5.8,8.1,58,0.00,,,0.00,VWS V13.01,2013-03-02 05:10:00,
2013-03-01 23:15:00,30.5,17.9,30.25,WSW,249,7.6,7.6,59,0.00,,,0.00,VWS V13.01,2013-03-02 05:15:00,
2013-03-01 23:20:00,30.4,17.8,30.25,West,263,10.1,10.1,59,0.00,,,0.00,VWS V13.01,2013-03-02 05:20:00,
2013-03-01 23:25:00,30.4,18.1,30.25,West,264,4.0,5.4,60,0.00,,,0.00,VWS V13.01,2013-03-02 05:25:00,
2013-03-01 23:30:00,30.2,18.0,30.25,WNW,282,7.6,8.1,60,0.00,,,0.00,VWS V13.01,2013-03-02 05:30:00,
2013-03-01 23:35:00,30.2,18.0,30.25,West,277,4.9,5.4,60,0.00,,,0.00,VWS V13.01,2013-03-02 05:35:00,
2013-03-01 23:40:00,30.2,18.0,30.25,WSW,251,3.1,3.1,60,0.00,,,0.00,VWS V13.01,2013-03-02 05:40:00,
2013-03-01 23:45:00,30.0,17.8,30.25,WNW,294,4.0,4.0,60,0.00,,,0.00,VWS V13.01,2013-03-02 05:45:00,
2013-03-01 23:50:00,30.0,17.8,30.25,WNW,285,4.9,5.8,60,0.00,,,0.00,VWS V13.01,2013-03-02 05:50:00,
2013-03-01 23:55:00,30.0,17.8,30.25,West,266,2.7,2.7,60,0.00,,,0.00,VWS V13.01,2013-03-02 05:55:00,